createdAt,value
2022-09-03T00:02:38.764Z,15.93
2022-09-03T00:05:19.315Z,15.89
2022-09-03T00:07:58.531Z,15.84
2022-09-03T00:10:38.705Z,15.81
2022-09-03T00:13:15.658Z,15.78
2022-09-03T00:15:49.696Z,15.75
2022-09-03T00:18:26.141Z,15.72
2022-09-03T00:21:08.796Z,15.71
2022-09-03T00:23:46.374Z,15.69
2022-09-03T00:26:29.095Z,15.66
2022-09-03T00:29:09.770Z,15.61
2022-09-03T00:31:46.123Z,15.58
2022-09-03T00:34:27.230Z,15.59
2022-09-03T00:37:00.846Z,15.55
2022-09-03T00:39:35.465Z,15.52
2022-09-03T00:42:21.383Z,15.48
2022-09-03T00:45:18.832Z,15.45
2022-09-03T00:48:04.445Z,15.41
2022-09-03T00:50:48.732Z,15.38
2022-09-03T00:53:29.919Z,15.36
2022-09-03T00:56:14.367Z,15.37
2022-09-03T00:59:09.890Z,15.33
2022-09-03T01:01:52.222Z,15.30
2022-09-03T01:04:45.846Z,15.24
2022-09-03T01:07:33.725Z,15.20
2022-09-03T01:10:17.925Z,15.20
2022-09-03T01:12:59.234Z,15.16
2022-09-03T01:15:37.997Z,15.12
2022-09-03T01:18:15.714Z,15.10
2022-09-03T01:21:07.025Z,15.02
2022-09-03T01:24:14.926Z,14.98
2022-09-03T01:27:06.154Z,14.92
2022-09-03T01:29:46.928Z,14.87
2022-09-03T01:32:29.623Z,14.88
2022-09-03T01:35:11.474Z,14.87
2022-09-03T01:37:56.042Z,14.86
2022-09-03T01:40:38.328Z,14.85
2022-09-03T01:43:34.150Z,14.84
2022-09-03T01:46:17.117Z,14.80
2022-09-03T01:48:55.162Z,14.79
2022-09-03T01:51:31.141Z,14.77
2022-09-03T01:54:40.591Z,14.77
2022-09-03T01:57:45.372Z,14.74
2022-09-03T02:00:20.858Z,14.70
2022-09-03T02:02:55.021Z,14.69
2022-09-03T02:05:29.559Z,14.66
2022-09-03T02:08:04.660Z,14.62
2022-09-03T02:10:45.547Z,14.57
2022-09-03T02:13:22.976Z,14.53
2022-09-03T02:16:00.481Z,14.54
2022-09-03T02:18:38.066Z,14.51
2022-09-03T02:21:12.223Z,14.48
2022-09-03T02:23:45.928Z,14.45
2022-09-03T02:26:23.014Z,14.41
2022-09-03T02:28:58.017Z,14.39
2022-09-03T02:31:31.328Z,14.38
2022-09-03T02:34:04.373Z,14.38
2022-09-03T02:36:40.539Z,14.37
2022-09-03T02:39:14.531Z,14.36
2022-09-03T02:41:59.206Z,14.31
2022-09-03T02:44:36.868Z,14.28
2022-09-03T02:47:11.764Z,14.20
2022-09-03T02:49:46.093Z,14.17
2022-09-03T02:52:19.476Z,14.14
2022-09-03T02:54:52.906Z,14.11
2022-09-03T02:57:27.638Z,14.09
2022-09-03T03:00:01.421Z,14.08
2022-09-03T03:02:34.978Z,14.08
2022-09-03T03:05:10.448Z,14.06
2022-09-03T03:07:44.519Z,14.06
2022-09-03T03:10:18.123Z,14.05
2022-09-03T03:12:51.415Z,14.07
2022-09-03T03:15:25.313Z,14.04
2022-09-03T03:18:00.849Z,14.02
2022-09-03T03:20:34.221Z,14.00
2022-09-03T03:23:08.322Z,13.99
2022-09-03T03:25:42.561Z,13.96
2022-09-03T03:28:16.331Z,13.96
2022-09-03T03:30:49.954Z,13.95
2022-09-03T03:33:23.294Z,13.91
2022-09-03T03:35:57.059Z,13.89
2022-09-03T03:38:30.684Z,13.88
2022-09-03T03:41:07.961Z,13.84
2022-09-03T03:43:41.292Z,13.83
2022-09-03T03:46:15.266Z,13.83
2022-09-03T03:48:51.730Z,13.81
2022-09-03T03:51:25.217Z,13.78
2022-09-03T03:54:03.228Z,13.76
2022-09-03T03:56:38.869Z,13.77
2022-09-03T03:59:12.526Z,13.79
2022-09-03T04:01:47.643Z,13.78
2022-09-03T04:04:21.040Z,13.74
2022-09-03T04:06:53.915Z,13.71
2022-09-03T04:09:27.723Z,13.70
2022-09-03T04:12:01.185Z,13.69
2022-09-03T04:14:35.529Z,13.70
2022-09-03T04:17:09.323Z,13.69
2022-09-03T04:19:42.334Z,13.69
2022-09-03T04:22:16.776Z,13.68
2022-09-03T04:24:50.015Z,13.69
2022-09-03T04:27:23.362Z,13.68
2022-09-03T04:29:56.732Z,13.66
2022-09-03T04:32:47.963Z,13.64
2022-09-03T04:35:26.859Z,13.61
2022-09-03T04:38:01.166Z,13.60
2022-09-03T04:40:34.683Z,13.60
2022-09-03T04:43:08.137Z,13.58
2022-09-03T04:45:41.537Z,13.57
2022-09-03T04:48:15.031Z,13.58
2022-09-03T04:50:48.137Z,13.62
2022-09-03T04:53:21.376Z,13.66
2022-09-03T04:55:55.490Z,13.67
2022-09-03T04:58:29.019Z,13.72
2022-09-03T05:01:08.800Z,13.79
2022-09-03T05:03:42.405Z,13.85
2022-09-03T05:06:17.894Z,13.92
2022-09-03T05:08:54.770Z,13.97
2022-09-03T05:11:29.490Z,14.01
2022-09-03T05:14:03.309Z,14.07
2022-09-03T05:16:36.850Z,14.07
2022-09-03T05:19:11.089Z,14.12
2022-09-03T05:21:44.656Z,14.16
2022-09-03T05:24:19.029Z,14.21
2022-09-03T05:26:52.439Z,14.26
2022-09-03T05:29:26.366Z,14.32
2022-09-03T05:32:00.756Z,14.39
2022-09-03T05:34:33.892Z,14.47
2022-09-03T05:37:07.319Z,14.59
2022-09-03T05:39:41.048Z,14.70
2022-09-03T05:42:15.449Z,14.79
2022-09-03T05:44:49.934Z,14.89
2022-09-03T05:47:23.739Z,15.07
2022-09-03T05:49:57.058Z,15.21
2022-09-03T05:52:30.511Z,15.36
2022-09-03T05:55:03.993Z,15.46
2022-09-03T05:57:37.750Z,15.54
2022-09-03T06:00:14.331Z,15.59
2022-09-03T06:02:51.660Z,15.63
2022-09-03T06:05:25.540Z,15.72
2022-09-03T06:07:58.628Z,15.87
2022-09-03T06:10:40.220Z,16.01
2022-09-03T06:13:14.461Z,16.13
2022-09-03T06:15:47.973Z,16.29
2022-09-03T06:18:21.252Z,16.41
2022-09-03T06:20:59.898Z,16.56
2022-09-03T06:23:34.693Z,16.76
2022-09-03T06:26:11.838Z,17.16
2022-09-03T06:28:45.998Z,17.87
2022-09-03T06:31:20.666Z,18.55
2022-09-03T06:33:55.334Z,18.91
2022-09-03T06:36:30.195Z,19.33
2022-09-03T06:39:03.823Z,20.14
2022-09-03T06:41:37.612Z,21.20
2022-09-03T06:44:13.582Z,23.06
2022-09-03T06:46:48.818Z,25.68
2022-09-03T06:49:22.519Z,28.22
2022-09-03T06:51:55.929Z,30.52
2022-09-03T06:54:29.423Z,32.57
2022-09-03T06:57:03.916Z,34.38
2022-09-03T06:59:36.878Z,36.01
2022-09-03T07:02:10.125Z,37.47
2022-09-03T07:04:44.218Z,38.93
2022-09-03T07:07:17.466Z,40.23
2022-09-03T07:09:51.082Z,41.14
2022-09-03T07:12:37.974Z,41.95
2022-09-03T07:15:13.160Z,42.65
2022-09-03T07:17:46.564Z,42.23
2022-09-03T07:20:20.844Z,41.63
2022-09-03T07:22:55.975Z,42.07
2022-09-03T07:25:29.319Z,42.72
2022-09-03T07:28:02.913Z,42.67
2022-09-03T07:30:35.892Z,41.86
2022-09-03T07:33:10.582Z,41.38
2022-09-03T07:35:43.475Z,40.92
2022-09-03T07:38:21.117Z,39.88
2022-09-03T07:41:01.507Z,38.66
2022-09-03T07:43:40.340Z,37.25
2022-09-03T07:46:14.385Z,36.32
2022-09-03T07:48:49.301Z,35.70
2022-09-03T07:51:24.452Z,34.55
2022-09-03T07:53:59.122Z,33.53
2022-09-03T07:56:33.225Z,33.06
2022-09-03T07:59:07.191Z,32.98
2022-09-03T08:01:41.987Z,33.15
2022-09-03T08:04:15.137Z,33.63
2022-09-03T08:06:48.626Z,35.28
2022-09-03T08:09:21.903Z,36.77
2022-09-03T08:11:55.309Z,38.27
2022-09-03T08:14:30.736Z,39.59
2022-09-03T08:17:03.837Z,40.62
2022-09-03T08:19:37.419Z,40.54
2022-09-03T08:22:11.255Z,39.91
2022-09-03T08:24:45.772Z,38.80
2022-09-03T08:27:26.539Z,37.75
2022-09-03T08:30:00.361Z,37.57
2022-09-03T08:32:34.050Z,37.55
2022-09-03T08:35:09.823Z,37.10
2022-09-03T08:37:43.404Z,36.36
2022-09-03T08:40:17.742Z,36.51
2022-09-03T08:43:06.988Z,36.80
2022-09-03T08:45:41.224Z,35.32
2022-09-03T08:48:23.763Z,34.18
2022-09-03T08:51:05.402Z,33.07
2022-09-03T08:53:47.189Z,32.39
2022-09-03T08:56:28.319Z,31.86
2022-09-03T08:59:02.724Z,31.20
2022-09-03T09:01:48.798Z,30.38
2022-09-03T09:04:38.292Z,29.53
2022-09-03T09:07:18.512Z,28.89
2022-09-03T09:09:59.146Z,28.49
2022-09-03T09:12:46.814Z,27.66
2022-09-03T09:15:31.632Z,27.02
2022-09-03T09:18:20.615Z,26.74
2022-09-03T09:21:03.642Z,26.59
2022-09-03T09:23:42.956Z,26.22
2022-09-03T09:26:20.120Z,25.83
2022-09-03T09:28:58.266Z,25.79
2022-09-03T09:31:32.225Z,25.80
2022-09-03T09:34:08.693Z,25.72
2022-09-03T09:36:49.198Z,25.70
2022-09-03T09:39:23.915Z,25.72
2022-09-03T09:42:09.792Z,25.62
2022-09-03T09:44:45.195Z,25.47
2022-09-03T09:47:26.957Z,25.44
2022-09-03T09:50:02.766Z,25.44
2022-09-03T09:52:36.826Z,25.68
2022-09-03T09:55:17.984Z,26.03
2022-09-03T09:57:54.946Z,26.52
2022-09-03T10:00:28.389Z,26.50
2022-09-03T10:03:02.332Z,26.38
2022-09-03T10:05:38.447Z,26.34
2022-09-03T10:08:24.051Z,26.26
2022-09-03T10:10:57.571Z,26.10
2022-09-03T10:13:38.395Z,26.02
2022-09-03T10:16:22.242Z,25.96
2022-09-03T10:19:04.869Z,25.92
2022-09-03T10:21:46.822Z,25.88
2022-09-03T10:24:46.916Z,25.70
2022-09-03T10:27:22.729Z,25.65
2022-09-03T10:29:56.312Z,25.49
2022-09-03T10:32:42.798Z,25.41
2022-09-03T10:35:29.746Z,25.32
2022-09-03T10:38:17.882Z,25.29
2022-09-03T10:41:01.342Z,25.36
2022-09-03T10:44:04.312Z,25.24
2022-09-03T10:46:47.543Z,25.05
2022-09-03T10:49:35.005Z,25.03
2022-09-03T10:52:19.018Z,25.02
2022-09-03T10:55:08.451Z,25.04
2022-09-03T10:57:50.933Z,25.14
2022-09-03T11:00:24.787Z,25.31
2022-09-03T11:03:30.598Z,25.28
2022-09-03T11:06:10.765Z,25.25
2022-09-03T11:08:50.017Z,25.32
2022-09-03T11:11:28.299Z,25.28
2022-09-03T11:14:06.095Z,25.24
2022-09-03T11:16:46.457Z,25.27
2022-09-03T11:19:24.691Z,25.29
2022-09-03T11:21:56.850Z,25.35
2022-09-03T11:24:35.167Z,25.31
2022-09-03T11:27:16.142Z,25.36
2022-09-03T11:29:56.216Z,25.49
2022-09-03T11:32:37.731Z,26.36
2022-09-03T11:35:18.053Z,26.70
2022-09-03T11:38:00.734Z,26.59
2022-09-03T11:40:36.848Z,26.52
2022-09-03T11:43:16.089Z,26.53
2022-09-03T11:45:50.698Z,26.53
2022-09-03T11:48:37.982Z,26.52
2022-09-03T11:51:23.701Z,26.76
2022-09-03T11:54:02.383Z,26.89
2022-09-03T11:56:37.427Z,26.77
2022-09-03T11:59:26.890Z,26.60
2022-09-03T12:02:06.817Z,26.57
2022-09-03T12:04:49.462Z,26.45
2022-09-03T12:07:58.499Z,26.36
2022-09-03T12:10:40.880Z,26.21
2022-09-03T12:13:29.724Z,26.29
2022-09-03T12:16:38.518Z,27.42
2022-09-03T12:19:22.581Z,29.53
2022-09-03T12:21:56.851Z,31.03
2022-09-03T12:24:38.196Z,32.46
2022-09-03T12:27:15.085Z,33.80
2022-09-03T12:30:00.564Z,34.41
2022-09-03T12:32:37.557Z,34.25
2022-09-03T12:38:18.495Z,35.18
2022-09-03T12:43:55.694Z,34.34
2022-09-03T12:46:33.281Z,34.42
2022-09-03T12:52:08.850Z,32.84
2022-09-03T12:54:50.434Z,31.94
2022-09-03T12:57:29.399Z,31.08
2022-09-03T13:00:07.926Z,30.31
2022-09-03T13:02:48.201Z,29.63
2022-09-03T13:05:24.202Z,29.10
2022-09-03T13:08:01.002Z,28.58
2022-09-03T13:10:38.505Z,28.25
2022-09-03T13:13:24.391Z,28.12
2022-09-03T13:16:25.657Z,27.81
2022-09-03T13:19:09.134Z,27.35
2022-09-03T13:21:53.407Z,27.06
2022-09-03T13:24:49.713Z,26.85
2022-09-03T13:27:32.308Z,26.70
2022-09-03T13:30:11.432Z,26.55
2022-09-03T13:32:59.491Z,26.40
2022-09-03T13:35:35.039Z,26.33
2022-09-03T13:38:22.083Z,26.15
2022-09-03T13:41:02.064Z,25.99
2022-09-03T13:43:42.783Z,25.87
2022-09-03T13:46:24.687Z,25.71
2022-09-03T13:49:23.579Z,25.59
2022-09-03T13:52:02.255Z,25.57
2022-09-03T13:54:48.995Z,25.58
2022-09-03T13:57:35.225Z,25.56
2022-09-03T14:00:11.911Z,25.58
2022-09-03T14:02:57.392Z,25.49
2022-09-03T14:05:46.246Z,25.41
2022-09-03T14:08:25.640Z,25.39
2022-09-03T14:11:11.502Z,25.40
2022-09-03T14:13:59.493Z,25.36
2022-09-03T14:16:43.952Z,25.26
2022-09-03T14:19:23.368Z,25.03
2022-09-03T14:22:01.885Z,24.81
2022-09-03T14:24:48.708Z,24.74
2022-09-03T14:27:30.072Z,24.63
2022-09-03T14:30:06.838Z,24.59
2022-09-03T14:32:53.771Z,24.56
2022-09-03T14:35:41.917Z,24.52
2022-09-03T14:38:32.044Z,24.51
2022-09-03T14:41:22.929Z,24.44
2022-09-03T14:44:20.688Z,24.35
2022-09-03T14:47:07.589Z,24.37
2022-09-03T14:50:05.499Z,24.40
2022-09-03T14:52:55.566Z,24.42
2022-09-03T14:55:41.053Z,24.41
2022-09-03T14:58:28.308Z,24.36
2022-09-03T15:01:06.234Z,24.16
2022-09-03T15:03:57.476Z,24.05
2022-09-03T15:06:48.211Z,23.94
2022-09-03T15:09:35.825Z,23.85
2022-09-03T15:12:19.235Z,23.80
2022-09-03T15:14:56.373Z,23.74
2022-09-03T15:17:44.812Z,23.73
2022-09-03T15:20:24.205Z,23.76
2022-09-03T15:23:18.295Z,23.74
2022-09-03T15:26:41.896Z,23.71
2022-09-03T15:29:24.053Z,23.71
2022-09-03T15:32:08.309Z,23.67
2022-09-03T15:35:11.293Z,23.62
2022-09-03T15:37:49.624Z,23.54
2022-09-03T15:40:31.215Z,23.49
2022-09-03T15:43:10.920Z,23.47
2022-09-03T15:45:57.994Z,23.44
2022-09-03T15:48:40.953Z,23.42
2022-09-03T15:51:22.050Z,23.42
2022-09-03T15:53:59.174Z,23.44
2022-09-03T15:56:40.355Z,23.39
2022-09-03T15:59:18.551Z,23.34
2022-09-03T16:01:58.690Z,23.34
2022-09-03T16:04:45.346Z,23.37
2022-09-03T16:07:28.559Z,23.37
2022-09-03T16:10:28.436Z,23.37
2022-09-03T16:13:08.534Z,23.38
2022-09-03T16:15:47.645Z,23.33
2022-09-03T16:18:34.744Z,23.29
2022-09-03T16:21:14.616Z,23.25
2022-09-03T16:23:54.695Z,23.22
2022-09-03T16:26:35.628Z,23.20
2022-09-03T16:29:14.711Z,23.16
2022-09-03T16:32:01.378Z,23.09
2022-09-03T16:34:41.236Z,23.03
2022-09-03T16:37:27.272Z,22.96
2022-09-03T16:40:10.545Z,22.91
2022-09-03T16:42:50.735Z,22.87
2022-09-03T16:45:34.654Z,22.84
2022-09-03T16:48:26.856Z,22.79
2022-09-03T16:51:12.173Z,22.71
2022-09-03T16:54:09.246Z,22.64
2022-09-03T16:56:51.587Z,22.59
2022-09-03T16:59:41.795Z,22.54
2022-09-03T17:02:41.774Z,22.50
2022-09-03T17:06:03.314Z,22.42
2022-09-03T17:08:49.604Z,22.32
2022-09-03T17:11:42.861Z,22.26
2022-09-03T17:14:42.228Z,22.21
2022-09-03T17:17:27.821Z,22.15
2022-09-03T17:20:08.589Z,22.08
2022-09-03T17:22:54.162Z,21.99
2022-09-03T17:25:36.069Z,21.91
2022-09-03T17:28:27.638Z,21.84
2022-09-03T17:31:10.474Z,21.77
2022-09-03T17:33:57.541Z,21.71
2022-09-03T17:36:33.917Z,21.65
2022-09-03T17:39:25.879Z,21.57
2022-09-03T17:42:06.766Z,21.52
2022-09-03T17:45:01.691Z,21.43
2022-09-03T17:47:55.557Z,21.36
2022-09-03T17:50:30.907Z,21.30
2022-09-03T17:53:13.855Z,21.24
2022-09-03T17:55:55.114Z,21.18
2022-09-03T17:58:33.454Z,21.11
2022-09-03T18:01:20.643Z,21.01
2022-09-03T18:03:57.416Z,20.91
2022-09-03T18:06:37.814Z,20.83
2022-09-03T18:09:20.712Z,20.75
2022-09-03T18:12:04.649Z,20.67
2022-09-03T18:14:45.820Z,20.59
2022-09-03T18:17:28.825Z,20.54
2022-09-03T18:20:27.201Z,20.45
2022-09-03T18:23:22.804Z,20.37
2022-09-03T18:26:22.371Z,20.30
2022-09-03T18:29:19.998Z,20.27
2022-09-03T18:32:10.613Z,20.21
2022-09-03T18:35:02.537Z,20.17
2022-09-03T18:37:54.603Z,20.12
2022-09-03T18:40:56.335Z,20.03
2022-09-03T18:43:59.101Z,19.94
2022-09-03T18:50:18.059Z,19.78
2022-09-03T18:53:16.404Z,19.72
2022-09-03T18:56:23.172Z,19.66
2022-09-03T18:59:31.167Z,19.60
2022-09-03T19:02:35.053Z,19.55
2022-09-03T19:05:36.452Z,19.49
2022-09-03T19:08:38.770Z,19.43
2022-09-03T19:11:40.165Z,19.37
2022-09-03T19:14:44.979Z,19.30
2022-09-03T19:17:45.833Z,19.22
2022-09-03T19:20:46.140Z,19.18
2022-09-03T19:23:37.422Z,19.12
2022-09-03T19:26:40.859Z,19.06
2022-09-03T19:29:39.270Z,19.01
2022-09-03T19:32:36.114Z,18.94
2022-09-03T19:35:36.848Z,18.84
2022-09-03T19:38:35.427Z,18.74
2022-09-03T19:41:39.730Z,18.69
2022-09-03T19:44:55.583Z,18.63
2022-09-03T19:48:04.293Z,18.58
2022-09-03T19:51:02.038Z,18.51
2022-09-03T19:53:54.505Z,18.47
2022-09-03T19:56:50.292Z,18.40
2022-09-03T19:59:46.293Z,18.34
2022-09-03T20:02:37.998Z,18.28
2022-09-03T20:05:35.825Z,18.20
2022-09-03T20:08:27.971Z,18.15
2022-09-03T20:11:03.178Z,18.10
2022-09-03T20:13:54.420Z,18.07
2022-09-03T20:16:33.144Z,18.06
2022-09-03T20:19:12.646Z,18.04
2022-09-03T20:21:57.610Z,17.98
2022-09-03T20:24:44.892Z,17.94
2022-09-03T20:27:32.499Z,17.92
2022-09-03T20:30:09.802Z,17.91
2022-09-03T20:33:01.491Z,17.86
2022-09-03T20:35:45.820Z,17.83
2022-09-03T20:38:52.568Z,17.80
2022-09-03T20:41:33.251Z,17.79
2022-09-03T20:44:29.607Z,17.76
2022-09-03T20:47:16.837Z,17.74
2022-09-03T20:50:04.511Z,17.71
2022-09-03T20:52:46.233Z,17.67
2022-09-03T20:55:25.713Z,17.62
2022-09-03T20:58:06.874Z,17.59
2022-09-03T21:00:51.299Z,17.60
2022-09-03T21:03:31.843Z,17.58
2022-09-03T21:06:20.387Z,17.58
2022-09-03T21:09:16.318Z,17.56
2022-09-03T21:11:55.326Z,17.55
2022-09-03T21:14:35.862Z,17.54
2022-09-03T21:17:26.315Z,17.56
2022-09-03T21:20:12.171Z,17.58
2022-09-03T21:22:55.927Z,17.59
2022-09-03T21:25:34.750Z,17.58
2022-09-03T21:28:11.555Z,17.54
2022-09-03T21:30:49.962Z,17.52
2022-09-03T21:33:26.298Z,17.48
2022-09-03T21:36:08.536Z,17.44
2022-09-03T21:38:45.732Z,17.39
2022-09-03T21:41:28.311Z,17.37
2022-09-03T21:44:07.962Z,17.34
2022-09-03T21:46:49.185Z,17.30
2022-09-03T21:49:29.620Z,17.25
2022-09-03T21:52:08.207Z,17.20
2022-09-03T21:54:41.983Z,17.14
2022-09-03T21:57:22.258Z,17.10
2022-09-03T22:00:13.495Z,17.07
2022-09-03T22:02:48.169Z,17.02
2022-09-03T22:05:21.493Z,16.97
2022-09-03T22:08:14.911Z,16.95
2022-09-03T22:10:57.743Z,16.91
2022-09-03T22:13:37.156Z,16.87
2022-09-03T22:16:20.364Z,16.85
2022-09-03T22:18:55.571Z,16.84
2022-09-03T22:21:34.455Z,16.83
2022-09-03T22:24:19.659Z,16.82
2022-09-03T22:26:57.419Z,16.76
2022-09-03T22:29:44.113Z,16.74
2022-09-03T22:32:27.902Z,16.73
2022-09-03T22:35:18.760Z,16.71
2022-09-03T22:38:08.727Z,16.69
2022-09-03T22:40:52.470Z,16.65
2022-09-03T22:43:40.233Z,16.62
2022-09-03T22:46:19.072Z,16.57
2022-09-03T22:49:30.077Z,16.54
2022-09-03T22:52:19.293Z,16.52
2022-09-03T22:55:02.721Z,16.51
2022-09-03T22:57:43.762Z,16.48
2022-09-03T23:00:19.079Z,16.47
2022-09-03T23:03:01.749Z,16.47
2022-09-03T23:05:46.201Z,16.46
2022-09-03T23:08:26.797Z,16.43
2022-09-03T23:11:07.912Z,16.38
2022-09-03T23:13:47.179Z,16.34
2022-09-03T23:16:30.851Z,16.32
2022-09-03T23:21:56.368Z,16.22
2022-09-03T23:24:34.940Z,16.16
2022-09-03T23:27:12.614Z,16.12
2022-09-03T23:29:50.347Z,16.09
2022-09-03T23:32:28.277Z,16.07
2022-09-03T23:35:13.563Z,16.05
2022-09-03T23:38:02.912Z,16.00
2022-09-03T23:40:47.460Z,15.96
2022-09-03T23:43:53.967Z,15.94
2022-09-03T23:46:36.079Z,15.88
2022-09-03T23:49:25.627Z,15.83
2022-09-03T23:52:22.621Z,15.77
2022-09-03T23:55:07.540Z,15.68
2022-09-03T23:57:42.821Z,15.68
